Kezdőlap
METAR-TAF:

METAR-TAF

Repülőterek :

Sussex Airport

Sussex, New Jersey, Amerikai Egyesült Államok

földrajzi szélesség: 41-12-01N, földrajzi hosszúság: 074-37-23W, magasság: 128 m

Jelenlegi meteorológiai megfigyelések

A jelentés 1 órával és 4 perccel ezelõtt készült, 19:53 UTC
Dél-délkeleti szél 5 kt
Hőmérséklet 31°C
Páratartalom 55%
Légköri nyomás 1015 hPa
Látótávolság: 16.1 km
Szakadozott felhőzet 4700 lábon
Szakadozott felhőzet 6000 lábon
Borult 7500 lábon

METAR: KFWN 091953Z AUTO 16005KT 10SM BKN047 BKN060 OVC075 31/21 A2998 RMK AO2 SLP147 T03110206

Idő: 16:57 (20:57 UTC)


TAF: hiányzik

Meteorológiai megfigyelések és előrejelzések több, mint 4000 repülőtéren (METAR és TAF jelentéseket).

A térképen piros és sárga pontok jelzik az elérhető meteorológiai állomásokat.

Mozgassa az egeret a pont fölött, hogy megjelenjen az állomás neve.

Azután kattintson az időjárási megfigyelések és előrejelzések megtekintéséhez.

A térkép megváltoztatása: kattintson a fekete keresztel jelölt zöld gombra ráközelítéshez, a vonallal jelölt zöld gombra távolításhoz, vagy a zöld nyilakra a szomszédos térképek eléréséhez.


METAR-TAF: